Historique des mesures à Cassis (13260), France
Quotidien Résumé Fevrier 1, 2018 Unités:  US    Métrique   Métrique/US
« Précédent (Jour)
Suivant (Jour) »
Quotidien Hebdomadaire Mensuel Annuel Période au choix
  Maximum: Minimum: Moyenne:
Température: TemperatureC °F 8.4 °F 9.7 °F
Point de rosée: DewpointC °F 2.4 °F 6 °F
Humidité: Humidity % 66 % 74 %
Vitesse du vent: WindSpeedKMH mph 0.0 mph 5.5 mph
Rafales: WindSpeedGustKMH mph - -
Vent:- - SW
Pression: PressurehPa in 1000.6 in -
Précipitations: 0.5 in    
Historical Graphs
 
 
Mesures pour : Fevrier 1, 2018
Heure Temperature Point de rosée Pression Vent Vitesse du vent Rafales Humidité Pluie (par heure) Conditions
TemperatureC °F DewpointC °F PressurehPa in Calm     Humidity % HourlyPrecipMM in SoftwareType W/m2
00:12 10.8 °F 6.6 °F 1012.4 in Calm     75 % 0.0 in open2300-1.11 W/m2
01:12 11.2 °F 7.1 °F 1011.4 in Calm     76 % 0.0 in open2300-1.11 W/m2
02:12 11.5 °F 8.2 °F 1010.4 in WSW 2.9 mph 6.8 mph 80 % 0.0 in open2300-1.11 W/m2
03:12 11.8 °F 8.8 °F 1009.4 in Calm   4.0 mph 82 % 0.0 in open2300-1.11 W/m2
04:12 11.6 °F 8.6 °F 1008.7 in WSW 7.6 mph 11.9 mph 82 % 0.0 in open2300-1.11 W/m2
05:12 10.9 °F 7.6 °F 1007.3 in West 8.7 mph 8.7 mph 80 % 0.0 in open2300-1.11 W/m2
06:12 10.3 °F 7.2 °F 1007.3 in West 7.2 mph 10.8 mph 81 % 0.0 in open2300-1.11 W/m2
07:12 10.2 °F 6.9 °F 1006.7 in WNW 8.7 mph 9.3 mph 80 % 0.0 in open2300-1.11 W/m2
08:12 10.3 °F 6.8 °F 1006.0 in WNW 5.5 mph 5.5 mph 79 % 0.0 in open2300-1.11 W/m2
10:12 10.4 °F 7.3 °F 1005.6 in Calm     81 % 0.0 in open2300-1.11 W/m2
11:12 10.1 °F 6.9 °F 1005.6 in WNW 7.9 mph 7.9 mph 81 % 0.5 in open2300-1.11 W/m2
12:12 10.1 °F 6.9 °F 1005.0 in North 1.8 mph 7.6 mph 81 % 0.0 in open2300-1.11 W/m2
13:12 10.5 °F 7.2 °F 1003.9 in Calm     80 % 0.0 in open2300-1.11 W/m2
14:12 10.4 °F 6.9 °F 1002.9 in NW 5.8 mph 15.4 mph 79 % 0.0 in open2300-1.11 W/m2
15:12 10.3 °F 6.6 °F 1002.6 in WNW 7.9 mph 9.0 mph 78 % 0.0 in open2300-1.11 W/m2
16:12 9.7 °F 6.2 °F 1001.9 in West 5.8 mph 10.5 mph 79 % 0.0 in open2300-1.11 W/m2
17:12 9.6 °F 5.9 °F 1001.2 in WNW 4.7 mph 8.7 mph 78 % 0.0 in open2300-1.11 W/m2
18:12 9.2 °F 5.1 °F 1001.6 in North 4.7 mph 10.1 mph 76 % 0.0 in open2300-1.11 W/m2
19:12 9.1 °F 4.8 °F 1001.6 in West 12.6 mph 13.0 mph 75 % 0.0 in open2300-1.11 W/m2
20:12 8.9 °F 4.4 °F 1001.2 in WNW 15.8 mph 15.8 mph 74 % 0.0 in open2300-1.11 W/m2
21:12 8.7 °F 3.9 °F 1001.2 in North 10.1 mph 24.5 mph 72 % 0.0 in open2300-1.11 W/m2
22:12 8.5 °F 2.5 °F 1000.9 in NNE 8.2 mph 14.3 mph 66 % 0.0 in open2300-1.11 W/m2
23:12 8.4 °F 2.4 °F 1000.6 in West 6.8 mph 6.8 mph 66 % 0.0 in open2300-1.11 W/m2
Observations météo à CASSIS
WU-History script by Weather Underground - 1 mb